Time;durP1;ratioP1;P1;durP2;ratioP2;P2;SDS_P1;SDS_P2;PMS_P1;PMS_P2;Temp;Humidity;BMP_temperature;BMP_pressure;BME280_temperature;BME280_humidity;BME280_pressure;Samples;Min_cycle;Max_cycle;Signal;HPM_P1;HPM_P2
2021/12/17 00:05:20;;;;;;;;;;;;;;;4.56;97.81;100291.72;5032320;28;19917;-68
2021/12/17 00:08:05;;;;;;;;;;;;;;;4.42;96.37;100282.44;5037490;28;19921;-69
2021/12/17 00:10:51;;;;;;;;;;;;;;;4.47;96.08;100277.19;5032540;28;19917;-68
2021/12/17 00:13:37;;;;;;;;;;;;;;;4.41;95.72;100295.44;5032285;28;19921;-69
2021/12/17 00:16:26;;;;;;;;;;;;;;;4.47;94.69;100290.16;5032218;28;19917;-68
2021/12/17 00:49:59;;;;;;;;;;;;;;;4.13;95.50;100309.78;5042174;28;19920;-66
2021/12/17 00:52:44;;;;;;;;;;;;;;;4.00;95.81;100310.88;5035375;28;19917;-67
2021/12/17 00:55:30;;;;;;;;;;;;;;;3.99;96.23;100314.34;5034981;28;19917;-67
2021/12/17 00:58:15;;;;;;;;;;;;;;;3.88;96.77;100320.56;5034037;28;19917;-67
2021/12/17 01:01:01;;;;;;;;;;;;;;;3.84;97.96;100320.63;5035439;28;19917;-67
2021/12/17 01:03:46;;;;;;;;;;;;;;;3.84;98.26;100333.59;5033763;28;20288;-66
2021/12/17 01:06:32;;;;;;;;;;;;;;;3.81;98.54;100340.53;5040543;28;19917;-66
2021/12/17 01:09:19;;;;;;;;;;;;;;;3.80;98.86;100343.16;5034755;28;19917;-67
2021/12/17 01:12:05;;;;;;;;;;;;;;;3.80;98.58;100351.78;5033604;28;19921;-66
2021/12/17 01:15:06;;;;;;;;;;;;;;;3.82;98.96;100350.03;5034721;28;19917;-66
2021/12/17 01:18:35;;;;;;;;;;;;;;;3.67;99.82;100353.69;5033592;28;20249;-66
2021/12/17 01:24:43;;;;;;;;;;;;;;;3.60;100.00;100352.09;5033560;28;19921;-69
2021/12/17 01:43:20;;;;;;;;;;;;;;;3.40;100.00;100329.03;5033137;28;19925;-69
2021/12/17 01:46:06;;;;;;;;;;;;;;;3.37;100.00;100329.06;5034045;28;19921;-67
2021/12/17 02:01:09;;;;;;;;;;;;;;;3.31;100.00;100310.13;5033141;28;19925;-68
2021/12/17 02:03:55;;;;;;;;;;;;;;;3.26;100.00;100295.56;5032862;28;19917;-68
2021/12/17 02:06:41;;;;;;;;;;;;;;;3.13;100.00;100298.31;5032086;28;19921;-66
2021/12/17 02:33:38;;;;;;;;;;;;;;;3.50;99.03;100258.06;5033192;28;19921;-67
2021/12/17 02:36:27;;;;;;;;;;;;;;;3.62;98.98;100258.75;5045774;28;19924;-68
2021/12/17 02:42:36;;;;;;;;;;;;;;;3.60;96.89;100265.69;5031981;28;19921;-69
2021/12/17 02:45:34;;;;;;;;;;;;;;;3.62;96.77;100271.72;5033052;28;19946;-66
2021/12/17 02:48:22;;;;;;;;;;;;;;;3.54;96.06;100261.47;5033042;28;19917;-67
2021/12/17 02:51:07;;;;;;;;;;;;;;;3.52;96.38;100273.59;5033012;28;19920;-68
2021/12/17 02:53:53;;;;;;;;;;;;;;;3.32;96.70;100277.31;5031911;28;20360;-67
2021/12/17 02:56:39;;;;;;;;;;;;;;;3.37;97.47;100269.47;5031853;28;19921;-68
2021/12/17 02:59:24;;;;;;;;;;;;;;;3.45;96.41;100284.06;5031832;28;19917;-68
2021/12/17 03:02:11;;;;;;;;;;;;;;;3.46;95.96;100287.47;5031572;28;19916;-68
2021/12/17 03:04:57;;;;;;;;;;;;;;;3.58;95.93;100273.50;5031642;28;19917;-67
2021/12/17 03:07:46;;;;;;;;;;;;;;;3.55;95.02;100283.91;5032423;28;20364;-69
2021/12/17 03:10:32;;;;;;;;;;;;;;;3.62;95.33;100293.31;5032328;28;19921;-69
2021/12/17 03:13:19;;;;;;;;;;;;;;;3.63;93.98;100279.47;5039438;28;19917;-66
2021/12/17 03:24:54;;;;;;;;;;;;;;;3.59;93.78;100269.19;5016556;28;19921;-69
2021/12/17 03:27:39;;;;;;;;;;;;;;;3.54;95.07;100264.91;5032299;28;20287;-68
2021/12/17 03:30:24;;;;;;;;;;;;;;;3.52;93.77;100258.03;5031421;28;19917;-68
2021/12/17 03:33:10;;;;;;;;;;;;;;;3.56;94.00;100249.31;5031718;28;19921;-67
2021/12/17 03:35:55;;;;;;;;;;;;;;;3.54;93.62;100241.56;5032354;28;20360;-68
2021/12/17 03:38:41;;;;;;;;;;;;;;;3.53;93.93;100237.28;5032023;28;19917;-68
2021/12/17 03:41:35;;;;;;;;;;;;;;;3.41;94.85;100246.09;5031620;28;19917;-68
2021/12/17 03:44:22;;;;;;;;;;;;;;;3.62;93.50;100233.69;5031259;28;19920;-66
2021/12/17 03:47:19;;;;;;;;;;;;;;;3.49;92.96;100232.19;5031464;28;19921;-68
2021/12/17 03:50:18;;;;;;;;;;;;;;;3.50;93.53;100232.16;5031425;28;19916;-67
2021/12/17 03:53:05;;;;;;;;;;;;;;;3.53;92.98;100237.28;5031145;28;19920;-68
2021/12/17 03:55:52;;;;;;;;;;;;;;;3.41;93.43;100251.28;5030964;28;20303;-68
2021/12/17 03:58:38;;;;;;;;;;;;;;;3.56;93.04;100249.31;5031395;28;19917;-68
2021/12/17 04:01:24;;;;;;;;;;;;;;;3.45;93.14;100244.31;5032790;28;19916;-68
2021/12/17 04:04:09;;;;;;;;;;;;;;;3.57;92.59;100251.88;5051151;28;19921;-68
2021/12/17 04:06:56;;;;;;;;;;;;;;;3.52;92.91;100239.91;5057820;28;19916;-68
2021/12/17 04:10:04;;;;;;;;;;;;;;;3.35;93.96;100246.19;5049104;28;19921;-69
2021/12/17 04:12:58;;;;;;;;;;;;;;;3.31;94.00;100247.97;5065136;28;19924;-68
2021/12/17 04:15:53;;;;;;;;;;;;;;;3.27;93.62;100258.41;5050717;28;19917;-68
2021/12/17 04:18:40;;;;;;;;;;;;;;;3.28;93.17;100242.00;5053721;28;20268;-68
2021/12/17 04:21:27;;;;;;;;;;;;;;;3.35;92.83;100242.72;5040921;28;19916;-68
2021/12/17 04:24:12;;;;;;;;;;;;;;;3.26;92.66;100243.75;5054631;28;19917;-68
2021/12/17 04:27:00;;;;;;;;;;;;;;;3.16;93.13;100250.78;5054765;28;20367;-66
2021/12/17 04:29:45;;;;;;;;;;;;;;;3.26;92.84;100242.00;5054119;28;19917;-67
2021/12/17 04:32:32;;;;;;;;;;;;;;;3.27;93.13;100254.06;5054601;28;19920;-67
2021/12/17 04:35:19;;;;;;;;;;;;;;;3.26;93.06;100251.50;5039391;28;19917;-68
2021/12/17 04:38:10;;;;;;;;;;;;;;;3.20;92.69;100247.25;5034263;28;19917;-67
2021/12/17 04:41:09;;;;;;;;;;;;;;;3.20;92.56;100250.72;5041391;28;19921;-68
2021/12/17 04:58:58;;;;;;;;;;;;;;;3.06;93.31;100226.75;5034044;28;19917;-68
2021/12/17 05:01:44;;;;;;;;;;;;;;;3.03;93.69;100234.56;5033919;28;19917;-67
2021/12/17 05:04:30;;;;;;;;;;;;;;;3.00;93.61;100238.06;5033988;28;19925;-67
2021/12/17 05:07:16;;;;;;;;;;;;;;;3.02;93.14;100241.47;5033981;28;19917;-67
2021/12/17 05:10:20;;;;;;;;;;;;;;;3.07;93.27;100252.63;5026306;28;19920;-67
2021/12/17 05:19:45;;;;;;;;;;;;;;;3.05;92.96;100256.13;5031316;28;19916;-68
2021/12/17 05:22:20;;;;;;;;;;;;;;;3.14;92.49;100255.13;5025938;28;19920;-67
2021/12/17 05:25:06;;;;;;;;;;;;;;;3.11;92.34;100245.69;5032092;28;19917;-66
2021/12/17 05:27:51;;;;;;;;;;;;;;;3.19;92.22;100256.78;5033308;28;19917;-68
2021/12/17 05:30:40;;;;;;;;;;;;;;;3.17;92.00;100262.84;5034245;28;19921;-68
2021/12/17 05:33:26;;;;;;;;;;;;;;;3.25;91.50;100255.81;5054433;28;19921;-68
2021/12/17 05:36:12;;;;;;;;;;;;;;;3.19;91.53;100264.56;5034345;28;19917;-68
2021/12/17 05:39:05;;;;;;;;;;;;;;;3.07;91.42;100262.13;5033064;28;19921;-67
2021/12/17 05:41:53;;;;;;;;;;;;;;;3.14;91.17;100266.34;5032999;28;20365;-67
2021/12/17 05:44:56;;;;;;;;;;;;;;;3.22;91.35;100261.06;5033052;28;19921;-64
2021/12/17 05:47:42;;;;;;;;;;;;;;;3.07;93.53;100247.44;5025645;28;19916;-65
2021/12/17 05:50:27;;;;;;;;;;;;;;;3.27;93.47;100263.56;5034000;28;19929;-62
2021/12/17 05:53:13;;;;;;;;;;;;;;;3.16;91.34;100249.06;5034030;28;19917;-68
2021/12/17 05:55:58;;;;;;;;;;;;;;;3.11;91.71;100247.41;5029241;28;19917;-68
2021/12/17 05:58:46;;;;;;;;;;;;;;;3.20;92.33;100258.50;5012768;28;19917;-67
2021/12/17 06:01:33;;;;;;;;;;;;;;;3.83;99.19;100254.97;5012407;28;19924;-59
2021/12/17 06:04:18;;;;;;;;;;;;;;;5.79;100.00;100264.81;5011506;28;19918;-59
2021/12/17 06:07:10;;;;;;;;;;;;;;;5.74;85.64;100256.28;5029300;28;20366;-58
2021/12/17 06:10:02;;;;;;;;;;;;;;;4.18;86.78;100266.44;5045325;28;19917;-59
2021/12/17 06:12:51;;;;;;;;;;;;;;;3.65;90.72;100253.53;5046519;28;19917;-59
2021/12/17 06:15:37;;;;;;;;;;;;;;;3.32;90.55;100260.06;5060395;28;19921;-60
2021/12/17 06:18:23;;;;;;;;;;;;;;;3.35;90.78;100264.31;5032344;28;19917;-61
2021/12/17 06:21:08;;;;;;;;;;;;;;;3.26;90.82;100251.50;5046654;28;20345;-59
2021/12/17 06:23:54;;;;;;;;;;;;;;;3.12;91.08;100255.16;5046234;28;19921;-60
2021/12/17 06:26:40;;;;;;;;;;;;;;;3.06;91.92;100255.25;5032191;28;19921;-59
2021/12/17 06:29:25;;;;;;;;;;;;;;;3.13;93.24;100263.78;5039442;28;19917;-59
2021/12/17 06:32:20;;;;;;;;;;;;;;;3.23;93.29;100259.34;5028404;28;19917;-66
2021/12/17 06:35:06;;;;;;;;;;;;;;;3.37;92.10;100248.75;5031951;28;19917;-66
2021/12/17 06:37:52;;;;;;;;;;;;;;;3.16;91.73;100250.78;5045976;28;20291;-66
2021/12/17 06:40:44;;;;;;;;;;;;;;;3.32;91.88;100260.06;5031441;28;19917;-67
2021/12/17 06:43:37;;;;;;;;;;;;;;;3.31;91.30;100247.97;5032241;28;19920;-67
2021/12/17 06:46:46;;;;;;;;;;;;;;;3.38;91.35;100260.84;5027101;28;19917;-67
2021/12/17 06:59:32;;;;;;;;;;;;;;;3.45;91.46;100250.38;5031000;28;19925;-67
2021/12/17 07:06:00;;;;;;;;;;;;;;;3.30;91.16;100250.56;5030205;28;20284;-67
2021/12/17 07:33:43;;;;;;;;;;;;;;;3.70;88.16;100277.63;5045495;28;19921;-69
2021/12/17 07:38:36;;;;;;;;;;;;;;;3.74;87.90;100283.63;5034019;28;20278;-65
2021/12/17 07:40:02;;;;;;;;;;;;;;;3.64;88.71;100298.47;5038970;28;19921;-68
2021/12/17 07:42:55;;;;;;;;;;;;;;;3.77;89.06;100299.97;5032458;28;19924;-69
2021/12/17 07:45:59;;;;;;;;;;;;;;;3.61;88.76;100299.34;5065514;28;19920;-68
2021/12/17 07:48:46;;;;;;;;;;;;;;;3.51;89.49;100306.41;5031704;28;19925;-70
2021/12/17 07:51:32;;;;;;;;;;;;;;;3.49;90.18;100315.09;5031294;28;19921;-67
2021/12/17 07:54:22;;;;;;;;;;;;;;;3.75;89.81;100319.91;5060884;28;20364;-71
2021/12/17 07:57:09;;;;;;;;;;;;;;;3.55;90.06;100313.28;5027974;28;19921;-70
2021/12/17 07:59:56;;;;;;;;;;;;;;;3.51;90.14;100298.63;5048008;28;20571;-67
2021/12/17 08:02:41;;;;;;;;;;;;;;;3.56;90.78;100303.75;5045928;28;19925;-71
2021/12/17 08:05:48;;;;;;;;;;;;;;;3.56;89.97;100308.94;5042607;28;19921;-68
2021/12/17 08:08:34;;;;;;;;;;;;;;;3.63;90.15;100322.66;5048212;28;19916;-68
2021/12/17 08:11:37;;;;;;;;;;;;;;;3.64;90.00;100319.22;5022115;28;19917;-70
2021/12/17 08:14:24;;;;;;;;;;;;;;;3.62;89.57;100320.97;5051063;28;19921;-69
2021/12/17 08:17:26;;;;;;;;;;;;;;;3.63;89.72;100312.28;5031247;28;19917;-72
2021/12/17 08:23:59;;;;;;;;;;;;;;;3.69;89.20;100318.25;5040886;28;20380;-62
2021/12/17 08:32:17;;;;;;;;;;;;;;;4.11;87.36;100337.50;5044295;28;19916;-65
2021/12/17 08:35:16;;;;;;;;;;;;;;;4.10;87.58;100337.53;5035124;28;19917;-64
2021/12/17 08:38:04;;;;;;;;;;;;;;;4.31;87.15;100337.13;5055134;28;19921;-64
2021/12/17 08:40:50;;;;;;;;;;;;;;;4.20;86.75;100344.25;5039390;28;19916;-64
2021/12/17 08:43:37;;;;;;;;;;;;;;;4.21;86.74;100335.56;5048510;28;20276;-64
2021/12/17 08:46:23;;;;;;;;;;;;;;;4.12;87.70;100352.16;5033527;28;19920;-64
2021/12/17 08:49:17;;;;;;;;;;;;;;;4.17;86.80;100350.34;5034899;28;19921;-64
2021/12/17 08:52:15;;;;;;;;;;;;;;;4.06;87.74;100341.91;5035279;28;20455;-66
2021/12/17 08:55:02;;;;;;;;;;;;;;;3.97;88.08;100342.88;5026965;28;19916;-66
2021/12/17 08:57:49;;;;;;;;;;;;;;;4.03;88.27;100342.78;5048311;28;19917;-64
2021/12/17 09:00:37;;;;;;;;;;;;;;;4.00;88.30;100344.59;5025027;28;20292;-64
2021/12/17 09:03:24;;;;;;;;;;;;;;;4.05;87.81;100359.19;5024998;28;19918;-64
2021/12/17 09:06:29;;;;;;;;;;;;;;;3.86;88.94;100345.66;5021541;28;19921;-64
2021/12/17 09:09:19;;;;;;;;;;;;;;;3.92;88.77;100353.34;5020020;28;19921;-63
2021/12/17 09:12:05;;;;;;;;;;;;;;;3.99;88.62;100354.09;5013052;28;20304;-64
2021/12/17 09:14:54;;;;;;;;;;;;;;;4.10;88.45;100364.28;5013991;28;19918;-64
2021/12/17 09:17:58;;;;;;;;;;;;;;;4.15;87.96;100361.63;5014919;28;20363;-64
2021/12/17 09:20:45;;;;;;;;;;;;;;;4.05;88.29;100354.00;5013875;28;19917;-65
2021/12/17 09:23:32;;;;;;;;;;;;;;;4.22;88.20;100352.00;5013830;28;19921;-63
2021/12/17 09:26:20;;;;;;;;;;;;;;;4.12;88.21;100352.16;5005006;28;20524;-64
2021/12/17 09:29:06;;;;;;;;;;;;;;;3.99;88.19;100340.28;5011888;28;19918;-66
2021/12/17 09:31:51;;;;;;;;;;;;;;;3.93;88.92;100354.22;5012837;28;19917;-65
2021/12/17 09:34:37;;;;;;;;;;;;;;;3.99;89.34;100337.69;5012758;28;19921;-63
2021/12/17 09:37:23;;;;;;;;;;;;;;;4.01;89.42;100341.13;5013073;28;19926;-64
2021/12/17 09:40:09;;;;;;;;;;;;;;;4.15;88.50;100336.56;5028257;28;20367;-65
2021/12/17 09:42:55;;;;;;;;;;;;;;;3.96;88.63;100338.59;5033970;28;19917;-64
2021/12/17 09:45:40;;;;;;;;;;;;;;;3.99;88.85;100346.31;5034077;28;20558;-66
2021/12/17 09:48:25;;;;;;;;;;;;;;;4.06;88.73;100355.69;5034167;28;19929;-65
2021/12/17 09:51:11;;;;;;;;;;;;;;;3.97;88.93;100332.50;5034166;28;19921;-63
2021/12/17 09:53:58;;;;;;;;;;;;;;;4.07;88.21;100338.41;5033984;28;19917;-64
2021/12/17 09:56:44;;;;;;;;;;;;;;;3.96;88.19;100342.91;5034121;28;19925;-64
2021/12/17 09:59:29;;;;;;;;;;;;;;;4.04;88.35;100338.47;5034046;28;19921;-65
2021/12/17 10:02:15;;;;;;;;;;;;;;;4.00;88.47;100342.84;5039567;28;19917;-63
2021/12/17 10:05:00;;;;;;;;;;;;;;;4.06;88.64;100345.31;5039579;28;19920;-66
2021/12/17 10:07:51;;;;;;;;;;;;;;;4.05;88.14;100333.25;5033933;28;19921;-63
2021/12/17 10:10:41;;;;;;;;;;;;;;;4.06;88.68;100340.13;5032728;28;20280;-65
2021/12/17 10:13:28;;;;;;;;;;;;;;;4.02;88.40;100343.69;5039839;28;19921;-64
2021/12/17 10:16:18;;;;;;;;;;;;;;;4.06;88.46;100331.53;5032827;28;19920;-64
2021/12/17 10:19:04;;;;;;;;;;;;;;;4.04;88.05;100341.94;5033712;28;19921;-64
2021/12/17 10:21:49;;;;;;;;;;;;;;;4.07;88.27;100349.66;5032629;28;19918;-64
2021/12/17 10:24:36;;;;;;;;;;;;;;;4.23;88.04;100343.38;5039162;28;19916;-64
2021/12/17 10:27:22;;;;;;;;;;;;;;;4.25;87.80;100333.78;5033992;28;19925;-65
2021/12/17 10:30:11;;;;;;;;;;;;;;;4.06;88.24;100334.94;5038829;28;19921;-65
2021/12/17 10:32:57;;;;;;;;;;;;;;;4.10;88.21;100340.94;5033322;28;20337;-64
2021/12/17 10:35:45;;;;;;;;;;;;;;;4.28;87.45;100336.34;5032344;28;20443;-64
2021/12/17 10:38:34;;;;;;;;;;;;;;;4.24;87.35;100330.38;5032953;28;19921;-65
2021/12/17 10:41:25;;;;;;;;;;;;;;;4.26;87.88;100335.53;5038843;28;19946;-65
2021/12/17 10:44:10;;;;;;;;;;;;;;;4.27;87.03;100327.72;5033144;28;19916;-64
2021/12/17 10:47:08;;;;;;;;;;;;;;;4.21;87.40;100335.56;5038268;28;19920;-66
2021/12/17 10:49:55;;;;;;;;;;;;;;;4.27;86.70;100335.50;5038509;28;19921;-67
2021/12/17 10:52:45;;;;;;;;;;;;;;;4.25;87.23;100332.06;5038594;28;19917;-63
2021/12/17 10:55:30;;;;;;;;;;;;;;;4.21;87.33;100307.03;5060088;28;20623;-66
2021/12/17 10:58:16;;;;;;;;;;;;;;;4.27;87.40;100303.50;5031831;28;19921;-67
2021/12/17 11:01:06;;;;;;;;;;;;;;;4.34;86.67;100296.47;5031941;28;19921;-67
2021/12/17 11:04:01;;;;;;;;;;;;;;;4.46;86.48;100293.63;5032616;28;19917;-66
2021/12/17 11:06:51;;;;;;;;;;;;;;;4.51;86.09;100293.53;5032625;28;19917;-66
2021/12/17 11:09:38;;;;;;;;;;;;;;;4.56;85.65;100295.19;5052324;28;20284;-66
2021/12/17 11:12:27;;;;;;;;;;;;;;;4.58;85.25;100295.16;5032708;28;20368;-66
2021/12/17 11:15:19;;;;;;;;;;;;;;;4.58;85.00;100289.09;5059235;28;20372;-66
2021/12/17 11:18:05;;;;;;;;;;;;;;;4.48;85.45;100281.47;5032379;28;19925;-66
2021/12/17 11:20:52;;;;;;;;;;;;;;;4.69;85.20;100292.34;5051920;28;19917;-66
2021/12/17 11:23:40;;;;;;;;;;;;;;;4.69;85.14;100281.94;5034463;28;19921;-67
2021/12/17 11:26:26;;;;;;;;;;;;;;;4.79;84.59;100275.69;5032749;28;19921;-66
2021/12/17 11:29:12;;;;;;;;;;;;;;;4.66;84.89;100282.00;5032253;28;19932;-66
2021/12/17 11:32:04;;;;;;;;;;;;;;;4.60;85.37;100287.31;5026577;28;19917;-66
2021/12/17 11:34:50;;;;;;;;;;;;;;;4.66;85.48;100275.09;5032269;28;19921;-64
2021/12/17 11:37:35;;;;;;;;;;;;;;;4.59;85.70;100285.59;5032199;28;19917;-68
2021/12/17 11:40:25;;;;;;;;;;;;;;;4.92;87.95;100276.28;5032212;28;19921;-66
2021/12/17 11:43:34;;;;;;;;;;;;;;;4.73;84.50;100273.22;5016307;28;19917;-64
2021/12/17 11:46:33;;;;;;;;;;;;;;;4.55;85.01;100290.84;5029843;28;19917;-64
2021/12/17 11:49:23;;;;;;;;;;;;;;;4.73;85.09;100275.81;5032130;28;19917;-63
2021/12/17 11:52:08;;;;;;;;;;;;;;;4.62;84.67;100265.63;5032527;28;19921;-67
2021/12/17 11:54:54;;;;;;;;;;;;;;;4.68;84.56;100268.09;5059452;28;20364;-63
2021/12/17 11:57:42;;;;;;;;;;;;;;;4.90;84.18;100275.47;5032574;28;19917;-65
2021/12/17 12:00:47;;;;;;;;;;;;;;;5.02;83.09;100274.34;5032324;28;19917;-64
2021/12/17 12:03:32;;;;;;;;;;;;;;;5.01;82.32;100277.81;5037535;28;19917;-66
2021/12/17 12:06:38;;;;;;;;;;;;;;;5.00;82.97;100273.53;5031554;28;19921;-64
2021/12/17 12:09:42;;;;;;;;;;;;;;;4.91;81.24;100260.75;5037716;28;19921;-65
2021/12/17 12:12:29;;;;;;;;;;;;;;;5.01;81.36;100270.03;5031915;28;19917;-64
2021/12/17 12:15:33;;;;;;;;;;;;;;;5.16;80.53;100273.19;5031956;28;19925;-64
2021/12/17 12:18:44;;;;;;;;;;;;;;;4.86;80.50;100259.97;5025785;28;19921;-63
2021/12/17 12:21:34;;;;;;;;;;;;;;;4.98;80.29;100254.50;5028217;28;20284;-64
2021/12/17 12:24:19;;;;;;;;;;;;;;;5.05;79.97;100255.25;5027704;28;19917;-63
2021/12/17 12:27:05;;;;;;;;;;;;;;;4.90;80.38;100256.41;5020008;28;19921;-64
2021/12/17 12:29:55;;;;;;;;;;;;;;;4.79;80.87;100256.66;5016245;28;19921;-64
2021/12/17 12:32:59;;;;;;;;;;;;;;;4.98;80.58;100251.09;5033076;28;19917;-63
2021/12/17 12:35:57;;;;;;;;;;;;;;;4.76;79.98;100262.78;5012656;28;19925;-64
2021/12/17 12:38:43;;;;;;;;;;;;;;;4.89;80.22;100259.91;5019334;28;19925;-65
2021/12/17 12:41:39;;;;;;;;;;;;;;;4.95;79.98;100262.38;5035494;28;19917;-64
2021/12/17 12:44:44;;;;;;;;;;;;;;;4.78;80.75;100266.16;5022904;28;19925;-64
2021/12/17 12:47:35;;;;;;;;;;;;;;;4.87;80.33;100265.13;5035154;28;19917;-64
2021/12/17 12:50:24;;;;;;;;;;;;;;;4.83;80.32;100266.06;5034188;28;19917;-64
2021/12/17 12:53:11;;;;;;;;;;;;;;;4.95;80.21;100267.56;5054843;28;19917;-66
2021/12/17 12:55:56;;;;;;;;;;;;;;;5.08;79.79;100275.94;5035113;28;19917;-65
2021/12/17 12:58:46;;;;;;;;;;;;;;;4.98;79.77;100270.09;5035053;28;19916;-64
2021/12/17 13:01:31;;;;;;;;;;;;;;;5.01;79.72;100272.63;5040527;28;19917;-64
2021/12/17 13:04:16;;;;;;;;;;;;;;;4.89;78.56;100254.72;5035337;28;19917;-64
2021/12/17 13:07:01;;;;;;;;;;;;;;;4.84;78.88;100270.41;5033990;28;20383;-62
2021/12/17 13:09:47;;;;;;;;;;;;;;;4.85;78.81;100263.47;5040220;28;19921;-64
2021/12/17 13:12:35;;;;;;;;;;;;;;;4.84;77.98;100257.41;5034515;28;20020;-65
2021/12/17 13:15:39;;;;;;;;;;;;;;;4.86;77.78;100259.97;5026659;28;19921;-63
2021/12/17 13:21:58;;;;;;;;;;;;;;;4.75;77.29;100261.03;5035424;28;19921;-63
2021/12/17 13:24:44;;;;;;;;;;;;;;;4.69;78.01;100263.78;5028012;28;19925;-62
2021/12/17 13:27:29;;;;;;;;;;;;;;;4.77;80.34;100254.09;5028638;28;19921;-63
2021/12/17 13:30:15;;;;;;;;;;;;;;;4.68;77.42;100259.47;5032037;28;20367;-62
2021/12/17 13:33:00;;;;;;;;;;;;;;;4.73;77.19;100247.25;5033218;28;20292;-63
2021/12/17 13:35:46;;;;;;;;;;;;;;;4.71;77.20;100255.94;5034796;28;19917;-62
2021/12/17 13:38:32;;;;;;;;;;;;;;;4.71;77.36;100249.03;5026981;28;19921;-62
2021/12/17 13:41:19;;;;;;;;;;;;;;;4.66;78.32;100259.50;5032945;28;19920;-63
2021/12/17 13:44:05;;;;;;;;;;;;;;;4.65;78.35;100265.56;5033803;28;19925;-62
2021/12/17 13:46:50;;;;;;;;;;;;;;;4.60;78.20;100269.16;5034062;28;19925;-63
2021/12/17 13:49:36;;;;;;;;;;;;;;;4.61;78.57;100263.06;5034121;28;19916;-63
2021/12/17 13:52:24;;;;;;;;;;;;;;;4.78;79.59;100257.53;5060731;28;20280;-64
2021/12/17 13:55:11;;;;;;;;;;;;;;;4.81;81.18;100260.06;5040280;28;19917;-62
2021/12/17 13:57:58;;;;;;;;;;;;;;;4.65;79.32;100262.13;5030071;28;19917;-63
2021/12/17 14:00:46;;;;;;;;;;;;;;;4.55;79.43;100272.69;5033491;28;20360;-64
2021/12/17 14:03:34;;;;;;;;;;;;;;;4.50;79.77;100282.31;5032650;28;20360;-63
2021/12/17 14:06:28;;;;;;;;;;;;;;;4.49;78.80;100269.38;5032727;28;19917;-66
2021/12/17 14:09:15;;;;;;;;;;;;;;;4.55;79.00;100277.03;5024060;28;19921;-63
2021/12/17 14:12:11;;;;;;;;;;;;;;;4.46;78.66;100261.63;5038798;28;19920;-63
2021/12/17 14:15:01;;;;;;;;;;;;;;;4.43;78.19;100252.16;5033491;28;19921;-64
2021/12/17 14:17:48;;;;;;;;;;;;;;;4.34;79.03;100255.78;5038885;28;19921;-64
2021/12/17 14:20:38;;;;;;;;;;;;;;;4.39;79.08;100251.34;5033283;28;20288;-64
2021/12/17 14:23:25;;;;;;;;;;;;;;;4.33;78.73;100246.28;5032661;28;19917;-63
2021/12/17 14:26:11;;;;;;;;;;;;;;;4.34;79.25;100244.56;5031301;28;19921;-64
2021/12/17 14:29:10;;;;;;;;;;;;;;;4.26;79.09;100247.31;5031566;28;19917;-64
2021/12/17 14:31:59;;;;;;;;;;;;;;;4.25;79.51;100243.84;5031250;28;19925;-64
2021/12/17 14:34:44;;;;;;;;;;;;;;;4.22;80.01;100245.63;5031369;28;19917;-63
2021/12/17 14:37:30;;;;;;;;;;;;;;;4.15;80.31;100235.38;5032019;28;20400;-65
2021/12/17 14:40:27;;;;;;;;;;;;;;;4.16;80.55;100246.63;5031513;28;19921;-64
2021/12/17 14:43:27;;;;;;;;;;;;;;;4.07;80.42;100238.13;5031266;28;19920;-62
2021/12/17 14:57:17;;;;;;;;;;;;;;;4.11;80.72;100230.28;5033280;28;19917;-65
2021/12/17 15:02:03;;;;;;;;;;;;;;;3.86;82.25;100241.06;5032546;28;19917;-64
2021/12/17 15:04:49;;;;;;;;;;;;;;;3.84;82.77;100243.69;5033028;28;19917;-64
2021/12/17 15:07:35;;;;;;;;;;;;;;;3.82;83.20;100225.56;5037973;28;19917;-63
2021/12/17 15:10:22;;;;;;;;;;;;;;;3.79;83.07;100236.00;5031262;28;19917;-64
2021/12/17 15:13:08;;;;;;;;;;;;;;;3.76;82.92;100246.44;5037927;28;20364;-65
2021/12/17 15:15:54;;;;;;;;;;;;;;;3.68;83.17;100249.16;5032479;28;19917;-64
2021/12/17 15:18:42;;;;;;;;;;;;;;;3.69;82.95;100245.66;5031259;28;20260;-64
2021/12/17 15:21:27;;;;;;;;;;;;;;;3.67;82.80;100249.16;5032476;28;19921;-65
2021/12/17 15:24:13;;;;;;;;;;;;;;;3.63;82.46;100238.00;5031150;28;19965;-64
2021/12/17 15:26:58;;;;;;;;;;;;;;;3.62;82.36;100256.16;5032338;28;19917;-64
2021/12/17 15:29:43;;;;;;;;;;;;;;;3.54;82.42;100262.31;5032155;28;19926;-64
2021/12/17 15:32:28;;;;;;;;;;;;;;;3.56;82.13;100257.97;5031080;28;20288;-64
2021/12/17 15:35:16;;;;;;;;;;;;;;;3.49;82.21;100269.31;5032322;28;19947;-64
2021/12/17 15:38:04;;;;;;;;;;;;;;;3.48;82.47;100277.94;5027588;28;20288;-65
2021/12/17 15:40:50;;;;;;;;;;;;;;;3.40;82.68;100267.72;5011900;28;19917;-64
2021/12/17 15:43:35;;;;;;;;;;;;;;;3.43;83.19;100259.03;5012912;28;19917;-65
2021/12/17 15:46:21;;;;;;;;;;;;;;;3.37;83.05;100249.63;5012559;28;19917;-67
2021/12/17 15:49:06;;;;;;;;;;;;;;;3.35;82.90;100258.28;5018315;28;19930;-65
2021/12/17 15:51:51;;;;;;;;;;;;;;;3.27;82.93;100256.66;5012328;28;19917;-66
2021/12/17 15:54:38;;;;;;;;;;;;;;;3.29;82.72;100248.88;5017963;28;19922;-65
2021/12/17 15:57:25;;;;;;;;;;;;;;;3.27;82.87;100256.66;5017492;28;19917;-65
2021/12/17 16:00:11;;;;;;;;;;;;;;;3.26;82.85;100254.97;5012528;28;19917;-64
2021/12/17 16:02:57;;;;;;;;;;;;;;;3.25;82.77;100260.19;5012349;28;20650;-65
2021/12/17 16:05:43;;;;;;;;;;;;;;;3.14;83.03;100250.81;5012358;28;20243;-64
2021/12/17 16:08:29;;;;;;;;;;;;;;;3.16;83.63;100253.38;5012154;28;20356;-65
2021/12/17 16:23:32;;;;;;;;;;;;;;;3.05;84.26;100254.38;5015859;28;19940;-67
2021/12/17 16:26:19;;;;;;;;;;;;;;;3.12;84.57;100257.75;5020709;28;20373;-64
2021/12/17 16:29:05;;;;;;;;;;;;;;;3.17;84.02;100250.75;5028888;28;20384;-67
2021/12/17 16:31:50;;;;;;;;;;;;;;;3.06;84.17;100242.28;5033276;28;19921;-65
2021/12/17 16:34:36;;;;;;;;;;;;;;;3.03;84.06;100247.50;5036328;28;19921;-62
2021/12/17 16:37:21;;;;;;;;;;;;;;;3.03;84.44;100256.16;5035442;28;19917;-64
2021/12/17 16:40:07;;;;;;;;;;;;;;;2.97;84.57;100256.19;5034057;28;19944;-62
2021/12/17 16:42:54;;;;;;;;;;;;;;;2.99;84.15;100264.81;5046403;28;19920;-64
2021/12/17 16:45:42;;;;;;;;;;;;;;;3.37;83.90;100267.75;5037892;28;19917;-72
2021/12/17 16:48:30;;;;;;;;;;;;;;;3.31;85.12;100263.50;5044976;28;20372;-70
2021/12/17 16:51:17;;;;;;;;;;;;;;;3.29;83.63;100274.78;5049190;28;19924;-69
2021/12/17 16:54:03;;;;;;;;;;;;;;;3.34;84.15;100270.41;5030978;28;19920;-73
2021/12/17 16:58:50;;;;;;;9.20;3.92;;;;;;;3.17;83.78;100268.91;5088402;27;20726;-72
2021/12/17 17:01:39;;;;;;;7.22;3.90;;;;;;;3.14;84.26;100260.31;5102425;28;20047;-72
2021/12/17 17:04:24;;;;;;;6.43;3.55;;;;;;;3.10;84.81;100258.66;5087362;28;20043;-77
2021/12/17 17:07:10;;;;;;;11.07;3.08;;;;;;;4.73;90.98;100256.78;5093131;28;20051;-76
2021/12/17 17:09:56;;;;;;;11.10;3.47;;;;;;;3.75;89.13;100259.41;5093264;28;20051;-68
2021/12/17 17:12:46;;;;;;;9.93;3.50;;;;;;;3.51;85.18;100270.13;5088257;28;20059;-73
2021/12/17 17:15:34;;;;;;;7.13;3.08;;;;;;;3.26;87.32;100264.47;5092054;28;20147;-74
2021/12/17 17:18:20;;;;;;;7.60;3.35;;;;;;;3.21;85.49;100274.91;5087741;28;20044;-69
2021/12/17 17:21:08;;;;;;;9.07;3.03;;;;;;;4.32;94.65;100275.72;5086456;28;20043;-71
2021/12/17 17:23:54;;;;;;;8.70;3.25;;;;;;;3.69;85.93;100255.16;5093803;28;20047;-70
2021/12/17 17:26:39;;;;;;;8.13;3.30;;;;;;;3.19;84.82;100272.34;5079334;28;20063;-71
2021/12/17 17:29:25;;;;;;;6.43;2.97;;;;;;;3.05;86.37;100266.47;5088834;28;20047;-69
2021/12/17 17:32:11;;;;;;;8.88;3.20;;;;;;;3.02;85.33;100263.94;5089313;28;20047;-71
2021/12/17 17:34:57;;;;;;;7.18;3.50;;;;;;;2.84;85.60;100273.63;5092362;28;20063;-69
2021/12/17 17:37:43;;;;;;;6.22;2.97;;;;;;;3.20;87.02;100281.81;5087409;28;20055;-70
2021/12/17 17:40:35;;;;;;;6.32;2.92;;;;;;;3.12;89.33;100268.09;5086360;28;20051;-70
2021/12/17 17:43:21;;;;;;;8.98;3.38;;;;;;;2.94;85.24;100284.72;5087945;28;20047;-68
2021/12/17 17:46:07;;;;;;;9.10;3.40;;;;;;;3.01;87.64;100288.97;5087465;28;20062;-70
2021/12/17 17:48:53;;;;;;;8.52;3.67;;;;;;;2.77;85.19;100295.31;5087562;28;20063;-69
2021/12/17 17:51:40;;;;;;;6.00;2.80;;;;;;;2.62;85.48;100293.75;5087564;28;20530;-71
2021/12/17 17:54:26;;;;;;;7.05;3.05;;;;;;;2.99;86.69;100301.06;5088665;28;20051;-70